createdAt,value
2024-02-27T00:02:16.803Z,4.61
2024-02-27T00:06:59.879Z,4.56
2024-02-27T00:11:37.678Z,4.50
2024-02-27T00:16:15.697Z,4.45
2024-02-27T00:20:53.723Z,4.40
2024-02-27T00:25:34.734Z,4.36
2024-02-27T00:30:13.806Z,4.35
2024-02-27T00:34:51.748Z,4.31
2024-02-27T00:39:30.906Z,4.31
2024-02-27T00:44:13.679Z,4.29
2024-02-27T00:48:51.801Z,4.27
2024-02-27T00:53:29.686Z,4.24
2024-02-27T00:58:07.797Z,4.18
2024-02-27T01:02:49.673Z,4.17
2024-02-27T01:07:27.733Z,4.18
2024-02-27T01:12:05.788Z,4.15
2024-02-27T01:16:43.663Z,4.15
2024-02-27T01:21:24.733Z,4.15
2024-02-27T01:26:02.689Z,4.15
2024-02-27T01:30:40.824Z,4.15
2024-02-27T01:35:13.872Z,4.16
2024-02-27T01:39:55.674Z,4.17
2024-02-27T01:44:33.662Z,4.18
2024-02-27T01:49:13.823Z,4.19
2024-02-27T01:53:51.666Z,4.17
2024-02-27T01:58:32.729Z,4.18
2024-02-27T02:03:11.812Z,4.14
2024-02-27T02:07:50.657Z,4.09
2024-02-27T02:12:28.714Z,4.07
2024-02-27T02:17:09.757Z,4.04
2024-02-27T02:21:50.701Z,3.95
2024-02-27T02:26:29.706Z,3.88
2024-02-27T02:31:07.718Z,3.84
2024-02-27T02:35:45.683Z,3.82
2024-02-27T02:40:27.699Z,3.75
2024-02-27T02:44:59.721Z,3.70
2024-02-27T02:49:40.895Z,3.68
2024-02-27T02:54:19.704Z,3.68
2024-02-27T02:59:00.669Z,3.65
2024-02-27T03:03:38.737Z,3.66
2024-02-27T03:08:16.681Z,3.66
2024-02-27T03:12:55.671Z,3.65
2024-02-27T03:17:36.714Z,3.59
2024-02-27T03:22:14.698Z,3.58
2024-02-27T03:26:52.654Z,3.58
2024-02-27T03:31:30.672Z,3.58
2024-02-27T03:36:11.787Z,3.56
2024-02-27T03:40:49.664Z,3.51
2024-02-27T03:45:27.720Z,3.51
2024-02-27T03:50:05.716Z,3.47
2024-02-27T03:54:46.682Z,3.44
2024-02-27T03:59:25.640Z,3.39
2024-02-27T04:04:03.640Z,3.33
2024-02-27T04:08:41.685Z,3.29
2024-02-27T04:13:22.656Z,3.28
2024-02-27T04:18:00.689Z,3.27
2024-02-27T04:22:38.675Z,3.25
2024-02-27T04:27:16.681Z,3.21
2024-02-27T04:32:00.642Z,3.23
2024-02-27T04:36:38.644Z,3.22
2024-02-27T04:41:16.665Z,3.23
2024-02-27T04:45:54.652Z,3.25
2024-02-27T04:50:35.637Z,3.28
2024-02-27T04:55:13.646Z,3.28
2024-02-27T04:59:52.662Z,3.21
2024-02-27T05:04:30.721Z,3.20
2024-02-27T05:09:11.701Z,3.20
2024-02-27T05:13:49.635Z,3.19
2024-02-27T05:18:27.814Z,3.15
2024-02-27T05:23:05.644Z,3.15
2024-02-27T05:27:46.636Z,3.17
2024-02-27T05:32:24.655Z,3.21
2024-02-27T05:37:02.647Z,3.23
2024-02-27T05:41:40.629Z,3.28
2024-02-27T05:46:21.679Z,3.21
2024-02-27T05:50:59.683Z,3.21
2024-02-27T05:55:37.629Z,3.23
2024-02-27T06:00:15.687Z,3.19
2024-02-27T06:04:56.737Z,3.17
2024-02-27T06:09:34.745Z,3.15
2024-02-27T06:14:12.620Z,3.08
2024-02-27T06:18:53.709Z,3.08
2024-02-27T06:23:34.630Z,3.02
2024-02-27T06:28:12.612Z,3.03
2024-02-27T06:32:50.740Z,3.05
2024-02-27T06:37:28.646Z,3.07
2024-02-27T06:42:09.706Z,3.06
2024-02-27T06:46:48.604Z,3.11
2024-02-27T06:51:26.654Z,3.14
2024-02-27T06:56:04.658Z,3.17
2024-02-27T07:00:45.854Z,3.22
2024-02-27T07:05:32.094Z,3.19
2024-02-27T07:10:13.639Z,3.19
2024-02-27T07:14:57.678Z,3.25
2024-02-27T07:19:38.681Z,3.32
2024-02-27T07:24:16.666Z,3.34
2024-02-27T07:28:54.646Z,3.42
2024-02-27T07:33:32.647Z,3.47
2024-02-27T07:38:13.650Z,3.43
2024-02-27T07:42:51.624Z,3.42
2024-02-27T07:47:29.590Z,3.37
2024-02-27T07:52:07.639Z,3.35
2024-02-27T07:56:48.609Z,3.41
2024-02-27T08:01:26.733Z,3.42
2024-02-27T08:06:04.620Z,3.42
2024-02-27T08:10:42.627Z,3.45
2024-02-27T08:15:23.629Z,3.47
2024-02-27T08:20:01.609Z,3.55
2024-02-27T08:24:39.737Z,3.59
2024-02-27T08:29:17.625Z,3.64
2024-02-27T08:33:58.776Z,3.53
2024-02-27T08:38:36.593Z,3.45
2024-02-27T08:43:14.614Z,3.50
2024-02-27T08:47:52.687Z,3.56
2024-02-27T08:52:33.600Z,3.59
2024-02-27T08:57:12.922Z,3.65
2024-02-27T09:01:51.591Z,3.72
2024-02-27T09:06:29.684Z,3.82
2024-02-27T09:11:10.692Z,3.92
2024-02-27T09:15:48.665Z,3.97
2024-02-27T09:20:21.595Z,4.02
2024-02-27T09:24:59.574Z,4.04
2024-02-27T09:29:41.591Z,4.04
2024-02-27T09:34:19.692Z,4.08
2024-02-27T09:38:58.591Z,4.10
2024-02-27T09:43:40.557Z,4.06
2024-02-27T09:48:23.682Z,4.02
2024-02-27T09:53:04.601Z,4.08
2024-02-27T09:57:45.706Z,4.16
2024-02-27T10:02:28.810Z,4.20
2024-02-27T10:07:09.631Z,4.24
2024-02-27T10:11:47.583Z,4.33
2024-02-27T10:16:25.583Z,4.41
2024-02-27T10:21:04.651Z,4.47
2024-02-27T10:25:46.572Z,4.51
2024-02-27T10:30:25.591Z,4.52
2024-02-27T10:35:04.807Z,4.54
2024-02-27T10:39:43.630Z,4.58
2024-02-27T10:44:24.594Z,4.52
2024-02-27T10:49:02.618Z,4.58
2024-02-27T10:53:41.577Z,4.64
2024-02-27T10:58:20.578Z,4.66
2024-02-27T11:03:06.584Z,4.69
2024-02-27T11:07:46.631Z,4.72
2024-02-27T11:12:21.508Z,4.76
2024-02-27T11:16:56.614Z,4.77
2024-02-27T11:21:38.586Z,4.79
2024-02-27T11:26:17.642Z,4.82
2024-02-27T11:30:55.625Z,4.85
2024-02-27T11:35:35.554Z,4.85
2024-02-27T11:40:16.645Z,4.93
2024-02-27T11:45:19.604Z,5.11
2024-02-27T11:49:57.587Z,5.11
2024-02-27T11:54:49.619Z,5.21
2024-02-27T11:59:30.666Z,5.31
2024-02-27T12:04:08.844Z,5.37
2024-02-27T12:08:47.606Z,5.34
2024-02-27T12:13:28.323Z,5.50
2024-02-27T12:18:09.807Z,5.65
2024-02-27T12:22:48.599Z,5.74
2024-02-27T12:27:26.615Z,5.72
2024-02-27T12:32:04.599Z,5.80
2024-02-27T12:36:45.652Z,5.77
2024-02-27T12:41:24.572Z,5.74
2024-02-27T12:46:06.565Z,5.88
2024-02-27T12:50:44.581Z,5.91
2024-02-27T12:55:26.571Z,5.88
2024-02-27T13:00:04.660Z,5.89
2024-02-27T13:04:45.034Z,5.97
2024-02-27T13:09:27.723Z,5.96
2024-02-27T13:14:02.430Z,5.98
2024-02-27T13:18:34.969Z,5.97
2024-02-27T13:23:21.488Z,5.85
2024-02-27T13:28:03.563Z,5.91
2024-02-27T13:32:44.606Z,5.93
2024-02-27T13:37:22.559Z,6.06
2024-02-27T13:42:02.594Z,5.99
2024-02-27T13:46:40.564Z,5.97
2024-02-27T13:51:21.609Z,5.84
2024-02-27T13:56:08.671Z,5.81
2024-02-27T14:00:46.638Z,5.63
2024-02-27T14:05:25.538Z,5.42
2024-02-27T14:10:06.637Z,5.52
2024-02-27T14:14:38.379Z,5.54
2024-02-27T14:19:12.678Z,5.62
2024-02-27T14:23:50.593Z,5.63
2024-02-27T14:28:31.557Z,5.65
2024-02-27T14:33:10.736Z,5.52
2024-02-27T14:37:48.542Z,5.59
2024-02-27T14:42:27.621Z,5.62
2024-02-27T14:47:08.667Z,5.61
2024-02-27T14:51:47.701Z,5.72
2024-02-27T14:56:26.528Z,5.71
2024-02-27T15:01:08.026Z,5.59
2024-02-27T15:05:49.575Z,5.47
2024-02-27T15:10:27.534Z,5.35
2024-02-27T15:15:05.599Z,5.26
2024-02-27T15:19:45.739Z,5.28
2024-02-27T15:24:28.596Z,5.39
2024-02-27T15:29:06.545Z,5.43
2024-02-27T15:33:44.598Z,5.50
2024-02-27T15:38:24.549Z,5.42
2024-02-27T15:43:07.632Z,5.09
2024-02-27T15:47:45.612Z,5.22
2024-02-27T15:52:23.653Z,5.24
2024-02-27T15:57:02.569Z,5.30
2024-02-27T16:01:43.624Z,5.34
2024-02-27T16:06:23.650Z,5.20
2024-02-27T16:11:01.554Z,5.15
2024-02-27T16:15:39.580Z,4.95
2024-02-27T16:20:21.517Z,4.91
2024-02-27T16:24:59.592Z,4.84
2024-02-27T16:29:37.545Z,4.71
2024-02-27T16:34:15.611Z,4.60
2024-02-27T16:38:56.520Z,4.62
2024-02-27T16:43:34.518Z,4.66
2024-02-27T16:48:13.646Z,4.72
2024-02-27T16:52:51.516Z,4.73
2024-02-27T16:57:32.553Z,4.77
2024-02-27T17:02:10.536Z,4.80
2024-02-27T17:06:51.581Z,4.76
2024-02-27T17:11:29.627Z,4.73
2024-02-27T17:16:10.557Z,4.74
2024-02-27T17:20:48.480Z,4.68
2024-02-27T17:25:26.523Z,4.57
2024-02-27T17:30:05.595Z,4.47
2024-02-27T17:34:46.648Z,4.42
2024-02-27T17:39:25.538Z,4.48
2024-02-27T17:44:03.515Z,4.46
2024-02-27T17:48:41.603Z,4.33
2024-02-27T17:53:22.549Z,4.26
2024-02-27T17:58:00.499Z,4.21
2024-02-27T18:02:38.556Z,4.16
2024-02-27T18:07:16.586Z,4.19
2024-02-27T18:11:58.482Z,4.19
2024-02-27T18:16:36.520Z,4.21
2024-02-27T18:21:16.695Z,4.15
2024-02-27T18:25:54.471Z,4.11
2024-02-27T18:30:35.968Z,4.10
2024-02-27T18:35:16.616Z,4.03
2024-02-27T18:39:54.678Z,3.97
2024-02-27T18:44:34.487Z,3.94
2024-02-27T18:49:15.568Z,3.78
2024-02-27T18:53:57.568Z,3.69
2024-02-27T18:58:35.477Z,3.73
2024-02-27T19:03:13.495Z,3.78
2024-02-27T19:07:54.498Z,3.65
2024-02-27T19:12:32.826Z,3.63
2024-02-27T19:17:12.495Z,3.65
2024-02-27T19:21:51.527Z,3.60
2024-02-27T19:26:32.492Z,3.49
2024-02-27T19:31:10.456Z,3.50
2024-02-27T19:35:43.488Z,3.56
2024-02-27T19:40:22.483Z,3.66
2024-02-27T19:45:04.475Z,3.66
2024-02-27T19:49:42.554Z,3.67
2024-02-27T19:54:20.523Z,3.56
2024-02-27T19:58:58.454Z,3.63
2024-02-27T20:03:39.517Z,3.73
2024-02-27T20:08:17.470Z,3.74
2024-02-27T20:12:55.593Z,3.77
2024-02-27T20:17:33.580Z,3.68
2024-02-27T20:22:15.430Z,3.61
2024-02-27T20:26:57.469Z,3.54
2024-02-27T20:31:36.380Z,3.50
2024-02-27T20:36:14.456Z,3.52
2024-02-27T20:40:56.460Z,3.50
2024-02-27T20:45:34.511Z,3.45
2024-02-27T20:50:16.476Z,3.44
2024-02-27T20:54:54.524Z,3.38
2024-02-27T20:59:36.485Z,3.33
2024-02-27T21:04:14.556Z,3.37
2024-02-27T21:08:52.471Z,3.40
2024-02-27T21:13:30.470Z,3.36
2024-02-27T21:18:12.885Z,3.24
2024-02-27T21:22:50.475Z,3.18
2024-02-27T21:27:28.554Z,3.18
2024-02-27T21:32:06.487Z,3.22
2024-02-27T21:36:47.587Z,3.26
2024-02-27T21:41:26.468Z,3.26
2024-02-27T21:46:06.490Z,3.14
2024-02-27T21:50:44.471Z,3.17
2024-02-27T21:55:26.503Z,3.20
2024-02-27T22:00:04.623Z,3.25
2024-02-27T22:04:42.459Z,3.23
2024-02-27T22:09:20.535Z,3.12
2024-02-27T22:14:01.470Z,3.08
2024-02-27T22:18:39.536Z,3.03
2024-02-27T22:23:17.459Z,2.94
2024-02-27T22:27:55.501Z,2.97
2024-02-27T22:32:36.533Z,2.93
2024-02-27T22:37:14.440Z,2.88
2024-02-27T22:41:52.473Z,2.86
2024-02-27T22:46:32.451Z,2.81
2024-02-27T22:51:13.458Z,2.72
2024-02-27T22:55:52.454Z,2.68
2024-02-27T23:00:32.743Z,2.71
2024-02-27T23:05:10.437Z,2.78
2024-02-27T23:09:51.547Z,2.77
2024-02-27T23:14:29.460Z,2.80
2024-02-27T23:19:07.471Z,2.81
2024-02-27T23:23:45.454Z,2.85
2024-02-27T23:28:27.429Z,2.89
2024-02-27T23:33:05.526Z,2.84
2024-02-27T23:37:37.436Z,2.76
2024-02-27T23:42:15.447Z,2.68
2024-02-27T23:46:56.440Z,2.69
2024-02-27T23:51:36.439Z,2.66
2024-02-27T23:56:14.409Z,2.60
